createdAt,value
2022-11-14T00:01:51.015Z,34.33
2022-11-14T00:04:28.271Z,33.30
2022-11-14T00:07:00.233Z,29.73
2022-11-14T00:09:33.005Z,31.10
2022-11-14T00:12:03.779Z,37.20
2022-11-14T00:14:38.245Z,32.77
2022-11-14T00:17:11.352Z,34.43
2022-11-14T00:19:42.110Z,34.50
2022-11-14T00:22:17.576Z,33.43
2022-11-14T00:24:50.382Z,30.57
2022-11-14T00:27:20.953Z,39.53
2022-11-14T00:29:54.163Z,33.77
2022-11-14T00:32:23.941Z,32.30
2022-11-14T00:34:54.024Z,27.07
2022-11-14T00:37:27.860Z,32.07
2022-11-14T00:40:01.022Z,31.83
2022-11-14T00:42:32.969Z,39.33
2022-11-14T00:45:04.814Z,34.50
2022-11-14T00:47:36.694Z,30.53
2022-11-14T00:50:09.877Z,36.10
2022-11-14T00:52:40.553Z,32.00
2022-11-14T00:55:16.238Z,28.93
2022-11-14T00:57:47.389Z,28.67
2022-11-14T01:00:29.038Z,36.70
2022-11-14T01:03:01.277Z,27.33
2022-11-14T01:05:32.400Z,26.20
2022-11-14T01:08:05.034Z,34.23
2022-11-14T01:10:45.771Z,38.20
2022-11-14T01:13:23.266Z,33.43
2022-11-14T01:15:57.892Z,36.20
2022-11-14T01:18:34.047Z,32.40
2022-11-14T01:21:24.469Z,30.23
2022-11-14T01:24:07.144Z,31.40
2022-11-14T01:26:44.135Z,39.07
2022-11-14T01:29:23.433Z,31.23
2022-11-14T01:31:57.858Z,32.50
2022-11-14T01:34:30.704Z,28.10
2022-11-14T01:37:01.081Z,29.23
2022-11-14T01:39:30.662Z,32.50
2022-11-14T01:42:00.377Z,32.50
2022-11-14T01:44:53.175Z,28.93
2022-11-14T01:47:33.500Z,28.60
2022-11-14T01:50:15.555Z,29.60
2022-11-14T01:52:48.368Z,36.17
2022-11-14T01:55:17.349Z,30.03
2022-11-14T01:57:49.599Z,32.00
2022-11-14T02:00:27.246Z,27.83
2022-11-14T02:03:03.721Z,34.47
2022-11-14T02:05:34.036Z,30.33
2022-11-14T02:08:17.493Z,24.17
2022-11-14T02:10:50.682Z,32.90
2022-11-14T02:13:25.271Z,27.37
2022-11-14T02:15:54.631Z,26.83
2022-11-14T02:18:27.532Z,22.93
2022-11-14T02:20:58.760Z,28.93
2022-11-14T02:23:29.562Z,28.10
2022-11-14T02:25:59.365Z,25.97
2022-11-14T02:28:29.279Z,32.73
2022-11-14T02:31:00.395Z,21.90
2022-11-14T02:33:32.803Z,30.20
2022-11-14T02:36:06.133Z,27.57
2022-11-14T02:38:35.910Z,25.87
2022-11-14T02:41:12.060Z,27.27
2022-11-14T02:43:41.236Z,27.93
2022-11-14T02:46:14.076Z,29.50
2022-11-14T02:48:48.070Z,31.80
2022-11-14T02:51:22.752Z,27.70
2022-11-14T02:53:53.958Z,31.97
2022-11-14T02:56:26.713Z,25.07
2022-11-14T02:58:57.405Z,22.63
2022-11-14T03:01:30.855Z,27.30
2022-11-14T03:04:00.247Z,27.80
2022-11-14T03:06:32.796Z,26.23
2022-11-14T03:09:04.957Z,27.23
2022-11-14T03:11:35.674Z,29.63
2022-11-14T03:14:06.169Z,30.30
2022-11-14T03:16:35.300Z,28.87
2022-11-14T03:19:07.261Z,32.97
2022-11-14T03:21:38.123Z,28.47
2022-11-14T03:24:16.547Z,22.90
2022-11-14T03:26:48.657Z,24.53
2022-11-14T03:29:21.499Z,26.93
2022-11-14T03:31:53.864Z,26.57
2022-11-14T03:34:28.477Z,27.10
2022-11-14T03:37:00.545Z,24.43
2022-11-14T03:39:29.527Z,22.23
2022-11-14T03:41:59.299Z,27.63
2022-11-14T03:44:30.477Z,29.77
2022-11-14T03:47:11.777Z,27.60
2022-11-14T03:49:41.898Z,27.03
2022-11-14T03:52:13.153Z,24.63
2022-11-14T03:57:28.170Z,26.23
2022-11-14T03:59:58.322Z,30.27
2022-11-14T04:02:28.130Z,41.50
2022-11-14T04:05:04.636Z,29.37
2022-11-14T04:07:37.268Z,29.30
2022-11-14T04:10:08.624Z,32.03
2022-11-14T04:12:38.803Z,29.00
2022-11-14T04:15:08.602Z,27.50
2022-11-14T04:17:40.031Z,31.57
2022-11-14T04:20:10.385Z,29.83
2022-11-14T04:22:45.113Z,29.00
2022-11-14T04:25:14.148Z,30.13
2022-11-14T04:27:42.985Z,30.40
2022-11-14T04:30:13.357Z,35.10
2022-11-14T04:32:46.238Z,28.90
2022-11-14T04:35:16.455Z,29.13
2022-11-14T04:37:47.170Z,29.63
2022-11-14T04:40:17.226Z,27.30
2022-11-14T04:42:50.011Z,26.67
2022-11-14T04:45:19.647Z,32.40
2022-11-14T04:47:49.315Z,27.50
2022-11-14T04:50:18.740Z,26.50
2022-11-14T04:52:53.556Z,25.13
2022-11-14T04:55:22.727Z,34.80
2022-11-14T04:57:56.587Z,31.33
2022-11-14T05:00:26.685Z,31.50
2022-11-14T05:02:55.936Z,30.80
2022-11-14T05:05:24.687Z,31.70
2022-11-14T05:07:56.322Z,29.67
2022-11-14T05:10:26.110Z,35.43
2022-11-14T05:12:57.762Z,28.67
2022-11-14T05:15:26.707Z,35.77
2022-11-14T05:17:55.519Z,29.63
2022-11-14T05:20:24.306Z,30.83
2022-11-14T05:22:56.863Z,28.97
2022-11-14T05:25:25.750Z,33.23
2022-11-14T05:27:54.584Z,27.03
2022-11-14T05:30:23.342Z,30.70
2022-11-14T05:32:53.510Z,28.60
2022-11-14T05:35:22.308Z,25.70
2022-11-14T05:37:52.961Z,37.37
2022-11-14T05:40:26.635Z,33.13
2022-11-14T05:42:57.321Z,30.27
2022-11-14T05:45:26.468Z,27.87
2022-11-14T05:47:55.644Z,27.90
2022-11-14T05:50:24.402Z,32.23
2022-11-14T05:52:53.359Z,31.77
2022-11-14T05:55:25.071Z,34.80
2022-11-14T05:57:58.871Z,27.47
2022-11-14T06:00:28.329Z,28.80
2022-11-14T06:02:57.696Z,34.93
2022-11-14T06:05:26.464Z,25.70
2022-11-14T06:07:58.877Z,29.83
2022-11-14T06:10:28.218Z,26.50
2022-11-14T06:12:58.425Z,30.20
2022-11-14T06:15:27.255Z,33.77
2022-11-14T06:17:57.848Z,31.37
2022-11-14T06:20:26.692Z,35.23
2022-11-14T06:22:56.373Z,28.00
2022-11-14T06:25:25.091Z,35.20
2022-11-14T06:27:53.758Z,28.37
2022-11-14T06:30:23.911Z,36.47
2022-11-14T06:32:57.582Z,36.77
2022-11-14T06:35:26.395Z,33.27
2022-11-14T06:37:55.159Z,32.97
2022-11-14T06:40:24.035Z,35.30
2022-11-14T06:42:52.692Z,28.70
2022-11-14T06:45:22.860Z,33.00
2022-11-14T06:47:56.684Z,27.37
2022-11-14T06:50:25.495Z,32.17
2022-11-14T06:52:54.322Z,33.77
2022-11-14T06:55:25.430Z,27.80
2022-11-14T06:57:55.693Z,41.10
2022-11-14T07:00:26.077Z,34.80
2022-11-14T07:02:54.965Z,33.77
2022-11-14T07:05:23.725Z,32.07
2022-11-14T07:07:52.585Z,41.10
2022-11-14T07:10:21.390Z,36.73
2022-11-14T07:12:50.107Z,36.00
2022-11-14T07:15:18.897Z,34.53
2022-11-14T07:17:49.383Z,32.00
2022-11-14T07:20:19.629Z,38.40
2022-11-14T07:22:48.492Z,39.33
2022-11-14T07:25:17.337Z,38.53
2022-11-14T07:27:46.145Z,37.10
2022-11-14T07:30:15.670Z,34.57
2022-11-14T07:32:44.370Z,41.10
2022-11-14T07:35:14.705Z,35.10
2022-11-14T07:37:43.597Z,30.97
2022-11-14T07:40:13.445Z,36.93
2022-11-14T07:42:42.236Z,38.07
2022-11-14T07:45:12.184Z,32.70
2022-11-14T07:47:40.925Z,35.80
2022-11-14T07:50:10.526Z,39.77
2022-11-14T07:52:40.644Z,23.57
2022-11-14T07:55:09.966Z,37.20
2022-11-14T07:57:42.840Z,39.23
2022-11-14T08:00:15.400Z,42.23
2022-11-14T08:02:44.077Z,37.93
2022-11-14T08:05:12.748Z,57.77
2022-11-14T08:07:42.866Z,35.77
2022-11-14T08:10:13.646Z,35.40
2022-11-14T08:12:42.735Z,34.53
2022-11-14T08:15:13.709Z,39.97
2022-11-14T08:17:42.696Z,36.37
2022-11-14T08:20:12.361Z,35.37
2022-11-14T08:22:42.578Z,24.33
2022-11-14T08:25:11.554Z,32.77
2022-11-14T08:27:40.295Z,42.00
2022-11-14T08:30:10.323Z,32.40
2022-11-14T08:32:39.236Z,39.93
2022-11-14T08:35:09.185Z,32.10
2022-11-14T08:37:37.991Z,31.37
2022-11-14T08:40:09.067Z,34.50
2022-11-14T08:42:37.735Z,31.67
2022-11-14T08:45:07.565Z,34.63
2022-11-14T08:47:36.363Z,33.47
2022-11-14T08:50:05.918Z,27.67
2022-11-14T08:52:34.904Z,31.03
2022-11-14T08:55:04.108Z,35.33
2022-11-14T08:57:35.968Z,31.13
2022-11-14T09:00:05.454Z,26.67
2022-11-14T09:02:34.327Z,32.30
2022-11-14T09:05:03.144Z,38.20
2022-11-14T09:07:32.056Z,37.20
2022-11-14T09:10:01.173Z,42.30
2022-11-14T09:12:29.991Z,32.90
2022-11-14T09:15:00.360Z,33.37
2022-11-14T09:17:29.316Z,32.47
2022-11-14T09:19:58.814Z,24.10
2022-11-14T09:22:27.677Z,28.07
2022-11-14T09:24:56.630Z,29.23
2022-11-14T09:27:27.830Z,33.20
2022-11-14T09:29:56.520Z,29.50
2022-11-14T09:32:26.799Z,31.03
2022-11-14T09:35:00.333Z,29.83
2022-11-14T09:37:29.299Z,29.07
2022-11-14T09:39:58.282Z,24.77
2022-11-14T09:42:40.536Z,29.20
2022-11-14T09:45:14.144Z,29.33
2022-11-14T09:47:47.635Z,26.50
2022-11-14T09:50:24.471Z,28.17
2022-11-14T09:53:03.619Z,23.70
2022-11-14T09:55:37.056Z,31.07
2022-11-14T09:58:08.676Z,22.60
2022-11-14T10:00:49.452Z,25.27
2022-11-14T10:03:27.441Z,28.73
2022-11-14T10:06:14.119Z,21.87
2022-11-14T10:08:52.392Z,22.07
2022-11-14T10:11:34.978Z,29.03
2022-11-14T10:14:32.667Z,25.23
2022-11-14T10:17:13.310Z,28.33
2022-11-14T10:19:48.787Z,24.40
2022-11-14T10:22:28.641Z,25.17
2022-11-14T10:25:15.067Z,25.50
2022-11-14T10:27:56.624Z,31.37
2022-11-14T10:30:36.843Z,24.70
2022-11-14T10:33:20.311Z,42.33
2022-11-14T10:35:56.267Z,26.60
2022-11-14T10:38:32.368Z,26.20
2022-11-14T10:41:03.858Z,25.30
2022-11-14T10:43:36.778Z,26.80
2022-11-14T10:46:11.693Z,26.43
2022-11-14T10:48:47.399Z,29.20
2022-11-14T10:51:25.669Z,26.17
2022-11-14T10:53:58.035Z,26.87
2022-11-14T10:56:34.502Z,27.43
2022-11-14T10:59:03.167Z,24.73
2022-11-14T11:01:39.921Z,26.83
2022-11-14T11:04:21.748Z,29.87
2022-11-14T11:06:54.536Z,26.00
2022-11-14T11:09:45.797Z,23.23
2022-11-14T11:12:20.091Z,23.73
2022-11-14T11:14:50.790Z,25.93
2022-11-14T11:17:23.364Z,24.83
2022-11-14T11:19:52.399Z,25.00
2022-11-14T11:22:32.894Z,20.73
2022-11-14T11:25:01.792Z,25.10
2022-11-14T11:27:32.060Z,28.50
2022-11-14T11:30:18.598Z,26.13
2022-11-14T11:32:47.656Z,29.43
2022-11-14T11:35:18.760Z,27.03
2022-11-14T11:37:55.987Z,20.57
2022-11-14T11:40:28.313Z,23.33
2022-11-14T11:45:56.330Z,27.00
2022-11-14T11:48:32.307Z,27.80
2022-11-14T11:51:04.576Z,25.90
2022-11-14T11:53:39.486Z,24.80
2022-11-14T11:56:14.244Z,26.43
2022-11-14T11:58:47.225Z,27.37
2022-11-14T12:01:17.551Z,26.80
2022-11-14T12:03:49.876Z,23.70
2022-11-14T12:06:24.910Z,29.17
2022-11-14T12:09:09.525Z,24.50
2022-11-14T12:11:44.465Z,30.27
2022-11-14T12:14:43.459Z,23.47
2022-11-14T12:17:33.699Z,29.43
2022-11-14T12:20:34.571Z,24.07
2022-11-14T12:23:28.988Z,26.33
2022-11-14T12:26:12.103Z,23.20
2022-11-14T12:28:59.309Z,27.43
2022-11-14T12:31:35.397Z,27.13
2022-11-14T12:34:08.982Z,29.10
2022-11-14T12:36:39.622Z,24.63
2022-11-14T12:39:22.324Z,24.03
2022-11-14T12:42:01.599Z,24.10
2022-11-14T12:44:39.131Z,21.83
2022-11-14T12:47:17.326Z,26.33
2022-11-14T12:50:07.682Z,25.43
2022-11-14T12:52:49.717Z,26.73
2022-11-14T12:55:51.618Z,23.73
2022-11-14T12:58:31.024Z,18.27
2022-11-14T13:01:23.586Z,21.47
2022-11-14T13:04:09.643Z,24.10
2022-11-14T13:06:49.085Z,26.90
2022-11-14T13:09:42.903Z,28.87
2022-11-14T13:12:45.582Z,30.07
2022-11-14T13:15:48.808Z,19.30
2022-11-14T13:18:41.852Z,34.43
2022-11-14T13:21:44.982Z,24.67
2022-11-14T13:24:17.069Z,23.30
2022-11-14T13:26:54.168Z,28.20
2022-11-14T13:29:50.555Z,22.60
2022-11-14T13:33:05.208Z,20.93
2022-11-14T13:36:05.047Z,26.97
2022-11-14T13:39:20.770Z,28.37
2022-11-14T13:42:20.545Z,24.67
2022-11-14T13:45:26.438Z,22.93
2022-11-14T13:48:47.228Z,26.00
2022-11-14T13:54:17.510Z,26.57
2022-11-14T13:57:00.942Z,34.23
2022-11-14T13:59:56.833Z,23.00
2022-11-14T14:02:50.041Z,25.37
2022-11-14T14:05:28.933Z,25.87
2022-11-14T14:08:14.981Z,26.13
2022-11-14T14:10:56.817Z,29.33
2022-11-14T14:13:43.468Z,26.20
2022-11-14T14:16:19.402Z,24.40
2022-11-14T14:19:01.354Z,29.33
2022-11-14T14:21:39.581Z,26.23
2022-11-14T14:24:23.159Z,24.73
2022-11-14T14:27:02.391Z,26.20
2022-11-14T14:29:42.103Z,26.90
2022-11-14T14:32:14.650Z,28.70
2022-11-14T14:34:43.540Z,23.93
2022-11-14T14:37:19.783Z,29.83
2022-11-14T14:40:00.690Z,30.97
2022-11-14T14:42:35.307Z,26.67
2022-11-14T14:45:05.787Z,31.30
2022-11-14T14:47:41.275Z,29.70
2022-11-14T14:50:18.871Z,30.13
2022-11-14T14:52:48.200Z,29.67
2022-11-14T14:55:26.965Z,27.93
2022-11-14T14:57:56.005Z,28.50
2022-11-14T15:00:27.245Z,34.23
2022-11-14T15:02:58.187Z,29.40
2022-11-14T15:05:29.405Z,32.67
2022-11-14T15:08:02.057Z,28.20
2022-11-14T15:10:33.811Z,28.30
2022-11-14T15:13:02.646Z,33.97
2022-11-14T15:15:31.887Z,34.63
2022-11-14T15:18:07.172Z,34.87
2022-11-14T15:20:35.798Z,34.47
2022-11-14T15:23:06.087Z,26.43
2022-11-14T15:25:36.385Z,33.00
2022-11-14T15:28:08.530Z,31.30
2022-11-14T15:30:39.540Z,31.67
2022-11-14T15:33:28.115Z,35.80
2022-11-14T15:36:09.518Z,35.97
2022-11-14T15:38:46.416Z,30.90
2022-11-14T15:41:22.178Z,32.10
2022-11-14T15:43:53.250Z,29.37
2022-11-14T15:46:50.186Z,36.93
2022-11-14T15:49:24.612Z,34.60
2022-11-14T15:52:00.177Z,37.43
2022-11-14T15:54:32.153Z,37.77
2022-11-14T15:57:07.969Z,43.20
2022-11-14T15:59:38.467Z,40.67
2022-11-14T16:02:16.082Z,34.83
2022-11-14T16:04:47.785Z,34.80
2022-11-14T16:07:18.592Z,35.20
2022-11-14T16:09:47.544Z,38.70
2022-11-14T16:12:18.486Z,35.37
2022-11-14T16:14:47.244Z,38.77
2022-11-14T16:17:17.722Z,38.40
2022-11-14T16:19:46.937Z,41.40
2022-11-14T16:22:18.624Z,44.20
2022-11-14T16:24:47.357Z,45.20
2022-11-14T16:27:17.584Z,40.17
2022-11-14T16:29:46.511Z,45.87
2022-11-14T16:32:15.399Z,43.37
2022-11-14T16:34:46.664Z,44.00
2022-11-14T16:37:16.432Z,49.43
2022-11-14T16:39:45.303Z,58.63
2022-11-14T16:42:17.673Z,68.80
2022-11-14T16:44:50.829Z,66.37
2022-11-14T16:47:20.737Z,53.30
2022-11-14T16:49:49.665Z,68.27
2022-11-14T16:52:19.271Z,78.17
2022-11-14T16:54:48.043Z,66.20
2022-11-14T16:57:16.907Z,82.30
2022-11-14T16:59:47.092Z,81.43
2022-11-14T17:02:16.817Z,89.03
2022-11-14T17:04:46.403Z,59.07
2022-11-14T17:07:17.728Z,64.37
2022-11-14T17:09:50.381Z,54.00
2022-11-14T17:12:19.134Z,87.47
2022-11-14T17:14:49.312Z,65.97
2022-11-14T17:17:18.029Z,58.43
2022-11-14T17:19:46.773Z,61.10
2022-11-14T17:22:16.214Z,60.37
2022-11-14T17:24:45.018Z,54.67
2022-11-14T17:27:14.045Z,58.20
2022-11-14T17:29:42.732Z,54.87
2022-11-14T17:32:12.743Z,63.60
2022-11-14T17:34:41.566Z,60.20
2022-11-14T17:37:10.245Z,66.27
2022-11-14T17:39:38.966Z,62.30
2022-11-14T17:42:08.505Z,59.70
2022-11-14T17:44:37.203Z,62.40
2022-11-14T17:47:05.852Z,64.20
2022-11-14T17:49:35.939Z,74.60
2022-11-14T17:52:04.638Z,70.13
2022-11-14T17:54:37.521Z,64.43
2022-11-14T17:57:06.434Z,71.73
2022-11-14T17:59:36.572Z,75.47
2022-11-14T18:02:05.373Z,83.73
2022-11-14T18:04:35.622Z,80.63
2022-11-14T18:07:04.523Z,84.07
2022-11-14T18:09:33.229Z,82.23
2022-11-14T18:12:01.942Z,83.60
2022-11-14T18:14:30.659Z,80.20
2022-11-14T18:17:12.292Z,87.00
2022-11-14T18:19:43.455Z,88.30
2022-11-14T18:22:12.249Z,81.30
2022-11-14T18:24:46.681Z,95.73
2022-11-14T18:27:15.385Z,88.07
2022-11-14T18:29:44.166Z,100.23
2022-11-14T18:32:15.653Z,95.93
2022-11-14T18:34:45.846Z,107.27
2022-11-14T18:37:14.505Z,96.10
2022-11-14T18:39:43.257Z,108.77
2022-11-14T18:42:12.034Z,114.30
2022-11-14T18:44:40.775Z,85.40
2022-11-14T18:47:09.525Z,106.77
2022-11-14T18:49:38.200Z,87.50
2022-11-14T18:52:12.870Z,90.97
2022-11-14T18:54:45.491Z,94.90
2022-11-14T18:57:17.283Z,90.60
2022-11-14T18:59:45.980Z,101.47
2022-11-14T19:02:14.745Z,93.03
2022-11-14T19:04:43.487Z,107.77
2022-11-14T19:07:14.581Z,91.90
2022-11-14T19:09:44.414Z,106.30
2022-11-14T19:12:23.536Z,117.53
2022-11-14T19:14:53.818Z,101.73
2022-11-14T19:17:22.764Z,93.83
2022-11-14T19:19:53.957Z,111.00
2022-11-14T19:22:24.145Z,126.20
2022-11-14T19:24:52.916Z,111.97
2022-11-14T19:27:22.033Z,103.53
2022-11-14T19:29:51.262Z,98.83
2022-11-14T19:32:19.933Z,99.03
2022-11-14T19:34:48.593Z,94.50
2022-11-14T19:37:17.331Z,112.30
2022-11-14T19:39:48.202Z,115.07
2022-11-14T19:42:17.044Z,112.97
2022-11-14T19:44:47.064Z,106.57
2022-11-14T19:47:15.802Z,107.67
2022-11-14T19:49:44.606Z,127.30
2022-11-14T19:52:14.157Z,118.67
2022-11-14T19:54:42.879Z,105.67
2022-11-14T19:57:13.093Z,105.30
2022-11-14T19:59:42.572Z,116.90
2022-11-14T20:02:14.989Z,106.43
2022-11-14T20:04:43.824Z,110.33
2022-11-14T20:07:12.589Z,126.10
2022-11-14T20:09:41.474Z,108.80
2022-11-14T20:12:10.240Z,112.07
2022-11-14T20:14:40.401Z,117.07
2022-11-14T20:17:09.157Z,108.10
2022-11-14T20:19:37.980Z,106.03
2022-11-14T20:22:07.610Z,112.57
2022-11-14T20:24:36.301Z,122.43
2022-11-14T20:27:05.570Z,116.00
2022-11-14T20:29:34.390Z,121.73
2022-11-14T20:32:04.857Z,117.90
2022-11-14T20:34:35.267Z,113.40
2022-11-14T20:37:11.157Z,116.07
2022-11-14T20:39:40.615Z,111.27
2022-11-14T20:42:09.410Z,102.37
2022-11-14T20:44:38.144Z,108.07
2022-11-14T20:47:10.983Z,111.40
2022-11-14T20:49:40.270Z,115.50
2022-11-14T20:52:09.000Z,117.57
2022-11-14T20:54:37.858Z,124.70
2022-11-14T20:57:06.656Z,153.57
2022-11-14T20:59:35.430Z,111.73
2022-11-14T21:02:04.436Z,133.30
2022-11-14T21:04:34.618Z,131.77
2022-11-14T21:07:03.428Z,147.77
2022-11-14T21:09:32.200Z,128.97
2022-11-14T21:12:00.889Z,129.23
2022-11-14T21:14:29.560Z,134.70
2022-11-14T21:16:58.293Z,127.47
2022-11-14T21:19:29.122Z,132.53
2022-11-14T21:21:59.366Z,137.77
2022-11-14T21:24:28.017Z,144.63
2022-11-14T21:26:56.723Z,128.87
2022-11-14T21:29:27.398Z,140.73
2022-11-14T21:31:56.146Z,130.20
2022-11-14T21:34:24.971Z,141.23
2022-11-14T21:36:53.744Z,124.67
2022-11-14T21:39:24.094Z,149.47
2022-11-14T21:41:53.881Z,145.60
2022-11-14T21:44:22.673Z,176.20
2022-11-14T21:46:51.997Z,157.80
2022-11-14T21:49:20.897Z,148.30
2022-11-14T21:51:49.851Z,153.53
2022-11-14T21:54:18.669Z,156.60
2022-11-14T21:56:48.763Z,162.10
2022-11-14T21:59:21.404Z,147.20
2022-11-14T22:02:09.717Z,142.87
2022-11-14T22:04:39.040Z,158.20
2022-11-14T22:07:09.575Z,196.27
2022-11-14T22:09:43.987Z,163.33
2022-11-14T22:12:15.315Z,164.20
2022-11-14T22:14:44.003Z,174.00
2022-11-14T22:17:12.778Z,162.90
2022-11-14T22:19:41.532Z,148.77
2022-11-14T22:22:10.283Z,173.20
2022-11-14T22:24:39.047Z,145.27
2022-11-14T22:27:07.767Z,156.47
2022-11-14T22:29:38.029Z,157.87
2022-11-14T22:32:06.988Z,159.30
2022-11-14T22:34:35.681Z,148.43
2022-11-14T22:37:04.489Z,152.77
2022-11-14T22:39:33.252Z,151.30
2022-11-14T22:42:01.986Z,156.50
2022-11-14T22:44:30.657Z,144.83
2022-11-14T22:47:00.767Z,126.40
2022-11-14T22:49:29.426Z,135.73
2022-11-14T22:51:58.315Z,136.43
2022-11-14T22:54:27.090Z,141.03
2022-11-14T22:56:55.796Z,137.17
2022-11-14T22:59:24.562Z,143.87
2022-11-14T23:01:53.290Z,132.60
2022-11-14T23:04:23.499Z,148.87
2022-11-14T23:06:52.243Z,155.90
2022-11-14T23:09:21.081Z,167.07
2022-11-14T23:11:49.686Z,132.73
2022-11-14T23:14:18.554Z,146.37
2022-11-14T23:16:47.246Z,142.23
2022-11-14T23:19:15.910Z,162.73
2022-11-14T23:21:45.969Z,155.17
2022-11-14T23:24:15.996Z,159.60
2022-11-14T23:26:45.008Z,154.87
2022-11-14T23:29:15.201Z,169.40
2022-11-14T23:31:44.010Z,157.07
2022-11-14T23:34:12.713Z,138.23
2022-11-14T23:36:41.420Z,129.33
2022-11-14T23:39:11.549Z,148.37
2022-11-14T23:41:40.265Z,142.57
2022-11-14T23:44:08.919Z,142.00
2022-11-14T23:46:37.609Z,139.27
2022-11-14T23:49:06.307Z,139.00
2022-11-14T23:51:34.988Z,131.07
2022-11-14T23:54:03.645Z,127.90
2022-11-14T23:56:33.738Z,127.90
2022-11-14T23:59:02.434Z,129.40
